createdAt,value
2023-02-22T00:02:27.074Z,21.07
2023-02-22T00:04:53.902Z,23.60
2023-02-22T00:07:21.372Z,21.43
2023-02-22T00:09:47.767Z,22.77
2023-02-22T00:12:14.154Z,21.23
2023-02-22T00:14:40.544Z,24.30
2023-02-22T00:17:07.009Z,18.23
2023-02-22T00:19:34.018Z,20.90
2023-02-22T00:22:00.421Z,21.20
2023-02-22T00:24:27.307Z,23.13
2023-02-22T00:26:57.632Z,24.50
2023-02-22T00:29:24.943Z,22.30
2023-02-22T00:31:51.482Z,23.30
2023-02-22T00:34:17.914Z,22.70
2023-02-22T00:36:45.285Z,19.00
2023-02-22T00:39:12.405Z,18.47
2023-02-22T00:41:38.803Z,21.03
2023-02-22T00:44:05.172Z,22.27
2023-02-22T00:46:31.797Z,21.50
2023-02-22T00:48:58.198Z,20.73
2023-02-22T00:51:29.256Z,22.90
2023-02-22T00:53:55.637Z,25.10
2023-02-22T00:56:22.166Z,23.73
2023-02-22T00:58:48.907Z,20.40
2023-02-22T01:01:15.634Z,20.57
2023-02-22T01:03:42.235Z,23.60
2023-02-22T01:06:08.831Z,22.87
2023-02-22T01:08:35.395Z,25.13
2023-02-22T01:11:01.798Z,28.23
2023-02-22T01:13:28.571Z,23.57
2023-02-22T01:15:56.593Z,23.07
2023-02-22T01:18:23.559Z,23.93
2023-02-22T01:20:50.012Z,24.40
2023-02-22T01:23:17.257Z,20.53
2023-02-22T01:25:43.785Z,25.97
2023-02-22T01:28:13.761Z,22.67
2023-02-22T01:30:40.472Z,22.30
2023-02-22T01:33:07.440Z,25.67
2023-02-22T01:35:35.464Z,21.80
2023-02-22T01:38:01.955Z,25.67
2023-02-22T01:40:29.810Z,24.63
2023-02-22T01:42:57.964Z,21.17
2023-02-22T01:45:30.528Z,23.27
2023-02-22T01:47:58.189Z,19.00
2023-02-22T01:50:24.682Z,21.70
2023-02-22T01:52:51.308Z,22.93
2023-02-22T01:55:17.899Z,19.83
2023-02-22T01:57:45.673Z,23.70
2023-02-22T02:00:16.807Z,24.27
2023-02-22T02:02:45.614Z,25.80
2023-02-22T02:05:12.617Z,22.90
2023-02-22T02:07:39.767Z,24.67
2023-02-22T02:10:14.189Z,26.40
2023-02-22T02:12:46.268Z,22.33
2023-02-22T02:15:21.809Z,24.60
2023-02-22T02:17:49.016Z,25.43
2023-02-22T02:20:42.073Z,23.10
2023-02-22T02:23:27.118Z,28.80
2023-02-22T02:26:12.577Z,21.17
2023-02-22T02:28:47.508Z,21.50
2023-02-22T02:31:27.597Z,27.23
2023-02-22T02:34:02.054Z,23.30
2023-02-22T02:36:34.807Z,21.20
2023-02-22T02:39:24.527Z,24.53
2023-02-22T02:41:51.795Z,21.37
2023-02-22T02:44:35.386Z,26.47
2023-02-22T02:47:03.479Z,26.17
2023-02-22T02:49:36.758Z,24.00
2023-02-22T02:52:04.791Z,25.90
2023-02-22T02:54:31.853Z,25.70
2023-02-22T02:56:58.404Z,21.50
2023-02-22T02:59:37.257Z,24.10
2023-02-22T03:02:13.253Z,23.00
2023-02-22T03:05:03.683Z,25.90
2023-02-22T03:07:51.148Z,23.77
2023-02-22T03:10:43.858Z,24.33
2023-02-22T03:13:16.513Z,23.90
2023-02-22T03:16:03.490Z,24.37
2023-02-22T03:18:38.273Z,24.00
2023-02-22T03:21:10.100Z,22.00
2023-02-22T03:23:46.841Z,23.70
2023-02-22T03:26:15.561Z,25.87
2023-02-22T03:28:44.051Z,22.80
2023-02-22T03:31:14.357Z,21.83
2023-02-22T03:34:17.734Z,28.03
2023-02-22T03:36:47.893Z,22.80
2023-02-22T03:39:16.303Z,24.50
2023-02-22T03:41:48.514Z,21.60
2023-02-22T03:44:17.794Z,25.63
2023-02-22T03:46:46.715Z,24.03
2023-02-22T03:49:17.648Z,23.90
2023-02-22T03:51:44.242Z,26.20
2023-02-22T03:54:16.184Z,25.00
2023-02-22T03:56:58.768Z,26.67
2023-02-22T03:59:27.435Z,26.63
2023-02-22T04:01:54.956Z,27.13
2023-02-22T04:04:21.563Z,26.37
2023-02-22T04:06:50.228Z,22.70
2023-02-22T04:09:17.606Z,25.73
2023-02-22T04:11:44.736Z,27.43
2023-02-22T04:14:11.853Z,26.10
2023-02-22T04:16:38.412Z,26.87
2023-02-22T04:19:07.802Z,26.40
2023-02-22T04:21:36.484Z,23.50
2023-02-22T04:24:03.449Z,27.27
2023-02-22T04:26:31.033Z,25.00
2023-02-22T04:28:59.709Z,26.37
2023-02-22T04:31:36.066Z,24.93
2023-02-22T04:34:03.526Z,26.00
2023-02-22T04:36:33.369Z,22.70
2023-02-22T04:39:00.602Z,24.90
2023-02-22T04:41:28.936Z,24.90
2023-02-22T04:43:55.440Z,25.87
2023-02-22T04:46:23.458Z,26.77
2023-02-22T04:48:52.706Z,22.60
2023-02-22T04:51:21.683Z,23.10
2023-02-22T04:53:55.303Z,22.40
2023-02-22T04:56:21.753Z,25.77
2023-02-22T04:58:48.840Z,23.30
2023-02-22T05:01:16.469Z,30.27
2023-02-22T05:03:43.762Z,23.13
2023-02-22T05:06:12.342Z,28.03
2023-02-22T05:08:38.725Z,26.10
2023-02-22T05:11:05.421Z,22.97
2023-02-22T05:13:31.804Z,27.20
2023-02-22T05:15:58.282Z,27.30
2023-02-22T05:18:25.251Z,24.30
2023-02-22T05:20:51.683Z,25.33
2023-02-22T05:23:18.091Z,24.97
2023-02-22T05:25:45.839Z,22.23
2023-02-22T05:28:13.894Z,32.03
2023-02-22T05:30:40.365Z,27.43
2023-02-22T05:33:07.972Z,26.07
2023-02-22T05:35:34.366Z,25.10
2023-02-22T05:38:03.057Z,29.97
2023-02-22T05:40:30.166Z,26.83
2023-02-22T05:42:56.915Z,28.77
2023-02-22T05:45:25.300Z,32.27
2023-02-22T05:47:51.738Z,30.77
2023-02-22T05:50:19.560Z,31.97
2023-02-22T05:52:47.256Z,32.57
2023-02-22T05:55:15.567Z,30.80
2023-02-22T05:57:42.404Z,25.87
2023-02-22T06:00:09.210Z,26.43
2023-02-22T06:02:42.147Z,27.53
2023-02-22T06:05:08.751Z,32.73
2023-02-22T06:07:35.147Z,31.53
2023-02-22T06:10:01.591Z,29.50
2023-02-22T06:12:28.108Z,34.80
2023-02-22T06:14:54.526Z,30.27
2023-02-22T06:17:20.920Z,33.87
2023-02-22T06:19:47.343Z,32.67
2023-02-22T06:22:17.934Z,34.33
2023-02-22T06:24:44.448Z,32.30
2023-02-22T06:27:11.230Z,33.67
2023-02-22T06:29:37.941Z,30.40
2023-02-22T06:32:04.577Z,31.70
2023-02-22T06:34:31.116Z,34.77
2023-02-22T06:36:59.874Z,32.37
2023-02-22T06:39:26.464Z,37.43
2023-02-22T06:41:55.143Z,30.30
2023-02-22T06:44:21.885Z,30.33
2023-02-22T06:46:50.715Z,34.20
2023-02-22T06:49:17.356Z,32.33
2023-02-22T06:51:43.998Z,27.30
2023-02-22T06:54:10.492Z,33.80
2023-02-22T06:56:36.906Z,30.13
2023-02-22T06:59:03.662Z,34.80
2023-02-22T07:01:30.708Z,29.80
2023-02-22T07:03:57.114Z,30.60
2023-02-22T07:06:24.017Z,29.00
2023-02-22T07:08:50.406Z,28.13
2023-02-22T07:11:17.675Z,28.43
2023-02-22T07:13:44.323Z,27.77
2023-02-22T07:16:10.736Z,32.47
2023-02-22T07:18:37.283Z,31.77
2023-02-22T07:21:03.883Z,33.17
2023-02-22T07:23:30.251Z,33.43
2023-02-22T07:25:59.453Z,28.60
2023-02-22T07:28:25.929Z,32.30
2023-02-22T07:30:52.327Z,31.40
2023-02-22T07:33:18.710Z,35.30
2023-02-22T07:35:46.764Z,24.67
2023-02-22T07:38:14.136Z,29.10
2023-02-22T07:40:41.416Z,27.90
2023-02-22T07:43:21.370Z,29.40
2023-02-22T07:45:48.770Z,30.90
2023-02-22T07:48:17.410Z,29.90
2023-02-22T07:50:44.433Z,25.53
2023-02-22T07:53:21.447Z,32.50
2023-02-22T07:55:50.911Z,30.70
2023-02-22T07:58:19.468Z,29.47
2023-02-22T08:00:48.301Z,30.20
2023-02-22T08:03:16.336Z,27.80
2023-02-22T08:05:45.307Z,29.07
2023-02-22T08:08:11.756Z,26.57
2023-02-22T08:10:38.573Z,27.27
2023-02-22T08:13:05.392Z,25.80
2023-02-22T08:15:34.573Z,24.97
2023-02-22T08:18:01.822Z,29.10
2023-02-22T08:20:29.118Z,24.00
2023-02-22T08:22:56.119Z,29.63
2023-02-22T08:25:25.316Z,26.50
2023-02-22T08:27:52.229Z,27.27
2023-02-22T08:30:23.017Z,25.70
2023-02-22T08:32:50.051Z,27.27
2023-02-22T08:35:17.138Z,23.67
2023-02-22T08:37:44.937Z,18.03
2023-02-22T08:40:14.664Z,20.13
2023-02-22T08:42:41.756Z,19.60
2023-02-22T08:45:08.348Z,23.13
2023-02-22T08:47:34.865Z,24.73
2023-02-22T08:50:01.320Z,20.80
2023-02-22T08:52:27.814Z,24.30
2023-02-22T08:54:55.593Z,24.27
2023-02-22T08:57:22.153Z,29.03
2023-02-22T08:59:48.606Z,18.37
2023-02-22T09:02:16.147Z,17.53
2023-02-22T09:04:42.737Z,20.37
2023-02-22T09:07:09.579Z,22.90
2023-02-22T09:09:36.129Z,21.73
2023-02-22T09:12:02.874Z,19.37
2023-02-22T09:14:29.308Z,17.83
2023-02-22T09:16:55.764Z,20.80
2023-02-22T09:19:22.167Z,20.40
2023-02-22T09:21:55.533Z,22.13
2023-02-22T09:24:22.472Z,21.70
2023-02-22T09:26:54.003Z,20.00
2023-02-22T09:29:24.702Z,23.33
2023-02-22T09:31:52.726Z,23.13
2023-02-22T09:34:20.302Z,19.07
2023-02-22T09:36:47.639Z,17.93
2023-02-22T09:39:15.463Z,16.53
2023-02-22T09:41:41.849Z,21.70
2023-02-22T09:44:15.650Z,18.53
2023-02-22T09:46:45.579Z,21.37
2023-02-22T09:49:20.803Z,18.63
2023-02-22T09:51:50.047Z,18.37
2023-02-22T09:54:22.894Z,27.17
2023-02-22T09:56:50.711Z,20.23
2023-02-22T09:59:20.607Z,18.13
2023-02-22T10:01:49.120Z,17.87
2023-02-22T10:04:36.673Z,20.00
2023-02-22T10:07:05.851Z,23.53
2023-02-22T10:09:34.601Z,18.17
2023-02-22T10:12:09.001Z,17.77
2023-02-22T10:14:44.154Z,16.90
2023-02-22T10:17:10.580Z,20.10
2023-02-22T10:19:43.295Z,13.27
2023-02-22T10:22:29.971Z,13.70
2023-02-22T10:25:00.594Z,20.30
2023-02-22T10:27:29.875Z,16.60
2023-02-22T10:30:18.731Z,18.23
2023-02-22T10:33:10.830Z,17.77
2023-02-22T10:35:38.569Z,15.23
2023-02-22T10:38:16.719Z,15.07
2023-02-22T10:41:01.691Z,14.93
2023-02-22T10:43:28.184Z,16.30
2023-02-22T10:46:01.233Z,16.70
2023-02-22T10:48:28.532Z,19.43
2023-02-22T10:50:58.757Z,17.03
2023-02-22T10:53:26.838Z,12.67
2023-02-22T10:56:12.770Z,11.80
2023-02-22T10:58:43.164Z,15.40
2023-02-22T11:01:23.412Z,17.60
2023-02-22T11:04:19.408Z,13.77
2023-02-22T11:06:46.897Z,12.83
2023-02-22T11:09:23.684Z,15.30
2023-02-22T11:11:51.919Z,14.47
2023-02-22T11:14:28.987Z,14.30
2023-02-22T11:16:56.994Z,16.97
2023-02-22T11:19:25.602Z,15.60
2023-02-22T11:21:54.956Z,14.70
2023-02-22T11:24:24.112Z,16.83
2023-02-22T11:26:53.351Z,16.70
2023-02-22T11:29:22.346Z,15.27
2023-02-22T11:31:49.517Z,17.40
2023-02-22T11:34:45.588Z,15.83
2023-02-22T11:37:22.310Z,14.53
2023-02-22T11:39:51.238Z,19.50
2023-02-22T11:42:20.954Z,13.33
2023-02-22T11:44:47.373Z,14.27
2023-02-22T11:47:13.782Z,16.40
2023-02-22T11:49:42.620Z,15.80
2023-02-22T11:52:18.224Z,12.10
2023-02-22T11:54:47.407Z,14.37
2023-02-22T11:57:28.681Z,14.40
2023-02-22T12:00:12.202Z,11.90
2023-02-22T12:02:41.650Z,15.40
2023-02-22T12:05:18.381Z,16.03
2023-02-22T12:07:51.561Z,11.90
2023-02-22T12:10:29.354Z,12.97
2023-02-22T12:13:22.218Z,15.37
2023-02-22T12:15:53.795Z,13.60
2023-02-22T12:18:20.699Z,13.13
2023-02-22T12:20:51.836Z,15.70
2023-02-22T12:23:22.558Z,13.33
2023-02-22T12:26:07.560Z,12.83
2023-02-22T12:28:37.474Z,17.87
2023-02-22T12:31:13.416Z,12.30
2023-02-22T12:34:12.253Z,14.77
2023-02-22T12:36:43.526Z,11.63
2023-02-22T12:39:50.767Z,16.87
2023-02-22T12:42:31.505Z,12.90
2023-02-22T12:45:01.622Z,19.93
2023-02-22T12:47:31.467Z,10.90
2023-02-22T12:50:14.892Z,13.07
2023-02-22T12:52:59.558Z,11.33
2023-02-22T12:55:33.030Z,13.07
2023-02-22T12:58:19.080Z,9.83
2023-02-22T13:00:51.711Z,10.53
2023-02-22T13:03:18.442Z,10.60
2023-02-22T13:05:48.589Z,9.77
2023-02-22T13:08:21.466Z,8.80
2023-02-22T13:10:56.752Z,10.30
2023-02-22T13:13:23.155Z,8.87
2023-02-22T13:16:01.874Z,10.77
2023-02-22T13:18:35.888Z,9.40
2023-02-22T13:21:25.784Z,8.60
2023-02-22T13:23:55.160Z,11.50
2023-02-22T13:26:21.521Z,8.43
2023-02-22T13:28:57.167Z,10.07
2023-02-22T13:31:29.654Z,8.53
2023-02-22T13:34:16.371Z,11.87
2023-02-22T13:36:48.905Z,9.87
2023-02-22T13:39:18.112Z,14.37
2023-02-22T13:41:51.377Z,10.10
2023-02-22T13:44:36.479Z,9.33
2023-02-22T13:47:02.910Z,9.87
2023-02-22T13:49:32.822Z,12.00
2023-02-22T13:52:17.152Z,7.97
2023-02-22T13:54:46.564Z,13.77
2023-02-22T13:57:21.533Z,10.60
2023-02-22T13:59:48.265Z,11.13
2023-02-22T14:02:52.853Z,11.57
2023-02-22T14:05:51.929Z,17.10
2023-02-22T14:08:25.971Z,11.80
2023-02-22T14:10:55.130Z,12.57
2023-02-22T14:13:22.629Z,10.13
2023-02-22T14:15:57.982Z,13.97
2023-02-22T14:18:25.262Z,11.30
2023-02-22T14:21:08.427Z,11.03
2023-02-22T14:23:43.005Z,11.13
2023-02-22T14:26:26.523Z,11.53
2023-02-22T14:28:56.062Z,13.20
2023-02-22T14:31:35.546Z,12.70
2023-02-22T14:34:10.714Z,11.30
2023-02-22T14:36:47.088Z,11.53
2023-02-22T14:39:13.526Z,14.13
2023-02-22T14:41:42.989Z,12.80
2023-02-22T14:44:12.779Z,12.50
2023-02-22T14:46:41.476Z,12.27
2023-02-22T14:49:11.598Z,10.70
2023-02-22T14:51:41.369Z,12.90
2023-02-22T14:54:13.759Z,8.53
2023-02-22T14:56:49.053Z,8.80
2023-02-22T14:59:18.647Z,14.57
2023-02-22T15:02:01.721Z,15.30
2023-02-22T15:04:34.557Z,12.93
2023-02-22T15:07:07.614Z,11.10
2023-02-22T15:09:37.318Z,12.17
2023-02-22T15:12:03.773Z,14.43
2023-02-22T15:14:37.567Z,15.90
2023-02-22T15:17:07.514Z,12.80
2023-02-22T15:19:37.241Z,16.17
2023-02-22T15:22:04.072Z,9.63
2023-02-22T15:24:31.154Z,9.50
2023-02-22T15:27:06.006Z,11.93
2023-02-22T15:29:35.094Z,11.00
2023-02-22T15:32:01.699Z,12.00
2023-02-22T15:34:30.823Z,10.27
2023-02-22T15:37:06.542Z,11.10
2023-02-22T15:39:34.560Z,10.67
2023-02-22T15:42:07.754Z,8.77
2023-02-22T15:44:35.258Z,11.20
2023-02-22T15:47:02.376Z,11.43
2023-02-22T15:49:33.636Z,12.83
2023-02-22T15:52:08.470Z,11.23
2023-02-22T15:54:40.394Z,18.13
2023-02-22T15:57:09.292Z,14.50
2023-02-22T15:59:41.737Z,9.80
2023-02-22T16:02:19.506Z,12.97
2023-02-22T16:04:59.084Z,10.93
2023-02-22T16:07:26.056Z,11.80
2023-02-22T16:09:52.640Z,13.17
2023-02-22T16:12:22.300Z,11.47
2023-02-22T16:14:49.899Z,11.93
2023-02-22T16:17:35.320Z,13.10
2023-02-22T16:20:24.744Z,12.63
2023-02-22T16:22:51.229Z,13.73
2023-02-22T16:25:17.808Z,14.20
2023-02-22T16:28:09.694Z,11.63
2023-02-22T16:30:37.172Z,14.87
2023-02-22T16:33:16.446Z,10.63
2023-02-22T16:35:51.751Z,12.07
2023-02-22T16:38:18.849Z,13.80
2023-02-22T16:40:47.064Z,9.50
2023-02-22T16:43:14.956Z,10.90
2023-02-22T16:45:42.653Z,9.13
2023-02-22T16:48:30.176Z,8.93
2023-02-22T16:50:59.570Z,9.97
2023-02-22T16:53:27.167Z,10.77
2023-02-22T16:55:57.908Z,10.50
2023-02-22T16:58:27.796Z,15.80
2023-02-22T17:00:55.394Z,9.40
2023-02-22T17:03:21.967Z,9.33
2023-02-22T17:05:48.475Z,11.87
2023-02-22T17:08:16.295Z,13.97
2023-02-22T17:10:42.909Z,14.53
2023-02-22T17:13:22.191Z,11.27
2023-02-22T17:15:49.466Z,10.10
2023-02-22T17:18:22.385Z,9.63
2023-02-22T17:20:52.462Z,10.00
2023-02-22T17:23:19.365Z,11.87
2023-02-22T17:25:50.300Z,10.67
2023-02-22T17:28:16.830Z,9.90
2023-02-22T17:30:45.120Z,12.90
2023-02-22T17:33:16.048Z,9.80
2023-02-22T17:35:42.671Z,10.20
2023-02-22T17:38:09.578Z,12.80
2023-02-22T17:40:37.476Z,11.30
2023-02-22T17:43:04.813Z,18.27
2023-02-22T17:45:31.276Z,10.17
2023-02-22T17:47:59.355Z,10.57
2023-02-22T17:50:26.818Z,10.50
2023-02-22T17:52:53.515Z,10.17
2023-02-22T17:55:21.406Z,11.97
2023-02-22T17:57:51.941Z,14.90
2023-02-22T18:00:25.348Z,15.13
2023-02-22T18:02:52.083Z,19.80
2023-02-22T18:05:18.574Z,19.60
2023-02-22T18:07:45.561Z,17.60
2023-02-22T18:10:12.688Z,17.60
2023-02-22T18:12:40.452Z,21.07
2023-02-22T18:15:08.710Z,13.97
2023-02-22T18:17:36.310Z,14.47
2023-02-22T18:20:11.458Z,14.23
2023-02-22T18:22:41.971Z,18.73
2023-02-22T18:25:09.054Z,14.13
2023-02-22T18:27:35.688Z,11.63
2023-02-22T18:30:02.420Z,19.60
2023-02-22T18:32:31.797Z,15.63
2023-02-22T18:34:58.410Z,16.37
2023-02-22T18:37:28.059Z,15.23
2023-02-22T18:39:55.501Z,14.83
2023-02-22T18:42:23.543Z,14.20
2023-02-22T18:44:53.553Z,20.30
2023-02-22T18:47:20.817Z,19.43
2023-02-22T18:49:48.563Z,15.87
2023-02-22T18:52:15.327Z,18.77
2023-02-22T18:54:45.376Z,19.63
2023-02-22T18:57:12.473Z,14.80
2023-02-22T18:59:39.943Z,18.80
2023-02-22T19:02:07.044Z,15.50
2023-02-22T19:04:33.523Z,21.67
2023-02-22T19:06:59.999Z,16.90
2023-02-22T19:09:26.461Z,19.00
2023-02-22T19:11:54.432Z,17.63
2023-02-22T19:14:21.358Z,16.13
2023-02-22T19:16:51.274Z,19.70
2023-02-22T19:19:21.262Z,13.60
2023-02-22T19:21:50.721Z,15.27
2023-02-22T19:24:20.404Z,14.10
2023-02-22T19:26:57.658Z,18.77
2023-02-22T19:29:24.284Z,20.87
2023-02-22T19:31:51.868Z,15.93
2023-02-22T19:34:21.692Z,15.03
2023-02-22T19:36:48.625Z,16.73
2023-02-22T19:39:16.263Z,21.73
2023-02-22T19:41:43.137Z,15.73
2023-02-22T19:44:09.796Z,19.63
2023-02-22T19:46:37.131Z,22.80
2023-02-22T19:49:04.141Z,17.37
2023-02-22T19:51:31.718Z,16.03
2023-02-22T19:53:59.489Z,26.63
2023-02-22T19:56:27.288Z,29.73
2023-02-22T19:58:54.956Z,21.40
2023-02-22T20:01:23.184Z,17.87
2023-02-22T20:03:54.372Z,17.33
2023-02-22T20:06:22.802Z,18.77
2023-02-22T20:08:51.027Z,21.40
2023-02-22T20:11:17.777Z,17.10
2023-02-22T20:13:44.716Z,16.03
2023-02-22T20:16:15.801Z,21.47
2023-02-22T20:18:43.558Z,23.67
2023-02-22T20:21:11.166Z,20.93
2023-02-22T20:23:40.549Z,17.50
2023-02-22T20:26:14.131Z,17.10
2023-02-22T20:28:41.176Z,17.37
2023-02-22T20:31:11.267Z,17.00
2023-02-22T20:33:41.588Z,18.40
2023-02-22T20:36:09.779Z,20.83
2023-02-22T20:38:36.950Z,18.80
2023-02-22T20:41:07.347Z,18.27
2023-02-22T20:43:33.907Z,17.50
2023-02-22T20:46:01.405Z,16.43
2023-02-22T20:48:28.198Z,16.80
2023-02-22T20:50:54.904Z,16.00
2023-02-22T20:53:22.913Z,19.77
2023-02-22T20:55:49.861Z,17.60
2023-02-22T20:58:16.323Z,20.23
2023-02-22T21:00:42.966Z,20.93
2023-02-22T21:03:09.475Z,18.90
2023-02-22T21:05:41.385Z,20.30
2023-02-22T21:08:07.824Z,22.87
2023-02-22T21:10:46.084Z,20.60
2023-02-22T21:13:12.862Z,19.43
2023-02-22T21:15:43.447Z,27.23
2023-02-22T21:18:11.010Z,24.47
2023-02-22T21:20:41.898Z,28.53
2023-02-22T21:23:09.386Z,28.90
2023-02-22T21:25:35.769Z,23.60
2023-02-22T21:28:02.414Z,20.80
2023-02-22T21:30:28.794Z,21.33
2023-02-22T21:32:55.356Z,26.03
2023-02-22T21:35:25.534Z,22.27
2023-02-22T21:37:52.456Z,21.40
2023-02-22T21:40:19.233Z,24.30
2023-02-22T21:42:48.038Z,26.67
2023-02-22T21:45:21.574Z,19.20
2023-02-22T21:47:48.943Z,24.70
2023-02-22T21:50:18.966Z,20.27
2023-02-22T21:52:46.964Z,22.90
2023-02-22T21:55:14.221Z,19.27
2023-02-22T21:57:40.799Z,22.50
2023-02-22T22:00:17.387Z,22.03
2023-02-22T22:02:48.017Z,22.60
2023-02-22T22:05:23.626Z,22.03
2023-02-22T22:07:50.026Z,21.10
2023-02-22T22:10:24.419Z,24.47
2023-02-22T22:12:50.853Z,23.63
2023-02-22T22:15:17.311Z,23.03
2023-02-22T22:17:44.067Z,20.23
2023-02-22T22:20:11.666Z,23.80
2023-02-22T22:22:39.084Z,20.20
2023-02-22T22:25:05.723Z,18.03
2023-02-22T22:27:32.440Z,20.53
2023-02-22T22:30:01.683Z,24.30
2023-02-22T22:32:29.547Z,20.13
2023-02-22T22:34:59.131Z,22.63
2023-02-22T22:37:27.891Z,21.73
2023-02-22T22:39:55.013Z,20.37
2023-02-22T22:42:21.542Z,25.37
2023-02-22T22:44:50.269Z,23.90
2023-02-22T22:47:18.232Z,25.37
2023-02-22T22:49:45.144Z,27.20
2023-02-22T22:52:13.740Z,24.90
2023-02-22T22:54:40.993Z,22.50
2023-02-22T22:57:07.733Z,24.77
2023-02-22T22:59:34.151Z,26.20
2023-02-22T23:02:03.036Z,27.97
2023-02-22T23:04:29.861Z,26.40
2023-02-22T23:07:00.525Z,32.90
2023-02-22T23:09:29.534Z,32.53
2023-02-22T23:11:57.965Z,29.97
2023-02-22T23:14:25.826Z,26.47
2023-02-22T23:16:53.635Z,24.73
2023-02-22T23:19:20.145Z,29.17
2023-02-22T23:21:47.807Z,25.17
2023-02-22T23:24:18.751Z,26.00
2023-02-22T23:26:49.067Z,33.17
2023-02-22T23:29:19.787Z,25.77
2023-02-22T23:31:48.215Z,26.80
2023-02-22T23:34:18.633Z,25.53
2023-02-22T23:36:45.117Z,23.37
2023-02-22T23:39:11.988Z,31.30
2023-02-22T23:41:38.611Z,29.60
2023-02-22T23:44:08.210Z,21.90
2023-02-22T23:46:36.255Z,21.00
2023-02-22T23:49:03.493Z,25.10
2023-02-22T23:51:38.963Z,22.60
2023-02-22T23:54:06.776Z,20.53
2023-02-22T23:56:35.274Z,18.33
2023-02-22T23:59:08.257Z,22.17
